Flight Track Log - Related Links

Times and Time Zones

All times are in EDT time to prevent confusion due to time zone crossing. See the EJA618 flight status page for this flight to view local times or setup timezone preferences in your user account.

Time Position Orientation Groundspeed Altitude Reporting Facility
EDT Latitude Longitude Course Direction KTS MPH feet Rate Location/Type
Wed 06:59:59 AM 43.1200 -77.6878 251° West 138 159 1,300  Level Cleveland Center
Wed 07:00:45 AM 43.1050 -77.7481 251° West 248 285 3,700 3,283 Climbing Cleveland Center
Wed 07:01:45 AM 43.0481 -77.7194 160° South 245 282 7,100 3,200 Climbing Cleveland Center
Wed 07:02:45 AM 43.0183 -77.6158 111° Southeast 199 229 10,100 2,950 Climbing Cleveland Center
Wed 07:03:45 AM 42.9842 -77.5094 114° Southeast 248 285 13,000 2,700 Climbing Cleveland Center
Wed 07:04:45 AM 42.9500 -77.4033 114° Southeast 280 322 15,500 2,150 Climbing Cleveland Center
Wed 07:05:45 AM 42.9156 -77.2861 112° Southeast 309 356 17,300 1,700 Climbing Cleveland Center
Wed 07:06:45 AM 42.8767 -77.1661 114° Southeast 328 377 18,900 1,650 Climbing Cleveland Center
Wed 07:07:45 AM 42.8375 -77.0408 113° Southeast 348 400 20,600 1,597 Climbing Cleveland Center
Wed 07:09:04 AM 42.8181 -76.8792 99° East 356 410 22,600 1,036 Climbing Boston Center
Wed 07:10:04 AM 42.8153 -76.7403 92° East 362 417 23,000 200 Climbing Boston Center
Wed 07:11:04 AM 42.8111 -76.5700 92° East 382 440 23,000  Level Boston Center
Wed 07:12:04 AM 42.8042 -76.4139 93° East 400 460 23,000  Level Boston Center
Wed 07:13:04 AM 42.7544 -76.2833 117° Southeast 409 471 23,000  Level Boston Center
Wed 07:14:04 AM 42.6908 -76.1267 119° Southeast 414 476 23,000  Level Boston Center
Wed 07:15:04 AM 42.6267 -75.9819 121° Southeast 437 503 23,000  Level Boston Center
Wed 07:16:04 AM 42.5664 -75.8403 120° Southeast 437 503 23,000 -100 Level Boston Center
Wed 07:17:04 AM 42.5058 -75.7017 121° Southeast 437 503 22,800 -1,600 Descending Boston Center
Wed 07:18:04 AM 42.4489 -75.5692 120° Southeast 426 490 19,800 -2,400 Descending Boston Center
Wed 07:19:04 AM 42.3939 -75.4483 122° Southeast 407 468 18,000 -900 Descending Boston Center
Wed 07:20:04 AM 42.3389 -75.3192 120° Southeast 392 451 18,000  Level Boston Center
Wed 07:21:04 AM 42.2878 -75.1989 120° Southeast 404 465 18,000  Level Boston Center
Wed 07:22:04 AM 42.2203 -75.0531 122° Southeast 411 473 18,000  Level Boston Center
Wed 07:23:04 AM 42.1628 -74.9189 120° Southeast 411 473 18,000  Level Boston Center
Wed 07:24:04 AM 42.1111 -74.7994 120° Southeast 411 473 18,000 -200 Level Boston Center
Wed 07:25:04 AM 42.0494 -74.6544 120° Southeast 406 467 17,600 -1,100 Descending Boston Center
Wed 07:26:04 AM 42.0036 -74.5439 119° Southeast 400 460 15,800 -2,100 Descending Boston Center
Wed 07:27:04 AM 41.9456 -74.4081 120° Southeast 388 447 13,400 -2,250 Descending Boston Center
Wed 07:28:04 AM 41.9017 -74.3006 119° Southeast 377 434 11,300 -1,650 Descending Boston Center
Wed 07:29:04 AM 41.8303 -74.1897 131° Southeast 356 410 10,100 -600 Descending Boston Center
Wed 07:30:04 AM 41.7522 -74.1292 150° Southeast 356 410 10,100  Level Boston Center
Wed 07:31:04 AM 41.6656 -74.0603 149° Southeast 356 410 10,100 -400 Level Boston Center
Wed 07:32:04 AM 41.5831 -73.9969 150° Southeast 326 375 9,300 -1,052 Descending Boston Center
Wed 07:32:41 AM 41.5333 -73.9667 155° Southeast 297 342 8,400 -1,546 Descending New York TRACON
Wed 07:33:41 AM 41.4667 -73.9000 143° Southeast 294 338 6,800 -1,150 Descending New York TRACON
Wed 07:34:41 AM 41.4000 -73.8500 151° Southeast 287 330 6,100 -368 Descending New York TRACON
Wed 07:35:35 AM 41.3333 -73.8000 151° Southeast 291 335 6,100 -650 Level New York TRACON
Wed 07:36:41 AM 41.2667 -73.7333 143° Southeast 276 318 4,800 -1,429 Descending New York TRACON
Wed 07:37:41 AM 41.2167 -73.6833 143° Southeast 259 298 3,100 -850 Descending New York TRACON
Wed 07:38:41 AM 41.1500 -73.6167 143° Southeast 264 304 3,100  Level New York TRACON
Wed 07:39:41 AM 41.0833 -73.5833 159° South 258 297 3,100 -500 Level New York TRACON
Wed 07:40:41 AM 41.0333 -73.6167 207° Southwest 206 237 2,100 -900 Descending New York TRACON
Wed 07:41:41 AM 41.0000 -73.6500 217° Southwest 191 220 1,300 -550 Descending New York TRACON
Wed 07:42:41 AM 41.0333 -73.6833 323° Northwest 124 143 1,000 -300 Descending New York TRACON
Wed 07:44:00 AM 41.0667 -73.7000 298° West  Level FlightAware Approximate
Wed 07:51:00 AM 41.0669 -73.7076 298° West  Level Estimated
Wed 07:52:00 AM 41.0667 -73.7000 298° West  Level FlightAware Approximate

Login

Don't have an account? Register now (free) for customized features, flight alerts, and more!